Green Creek, Illinois
Current Conditions -  °F | °C
As of 10:55 AM on Friday 28 Nov 2014 (Local Time) from K1H2 Reporting Station
Clear Clear  
Wind Chill: 24°   Ceiling: Unl
Heat Index: 33°   Visibility: 10mi
Dew Point: 24°   Wind: 13mph
Humidity: 70%   Direction: 160°SSE
Pressure: 30.23"   Gusts: 21mph
Location:  39.1183°N, 88.6059°W
Report Text: K1H2 281655Z AUTO 16011G18KT 10SM CLR 01/M04 A3023 RMK AO2 T00071043
Loading
Personal Weather Stations






























Interactive Weather Map New forecast layout! Learn more

10-Day Weather Forecast

Advertisements
Track Severe Weather on mobile